createdAt,value
2022-07-25T00:03:56.711Z,101247.75
2022-07-25T00:09:01.590Z,101245.78
2022-07-25T00:14:08.710Z,101233.25
2022-07-25T00:19:13.002Z,101224.00
2022-07-25T00:24:17.450Z,101209.78
2022-07-25T00:29:19.246Z,101211.94
2022-07-25T00:34:21.329Z,101195.06
2022-07-25T00:39:23.349Z,101191.16
2022-07-25T00:44:26.627Z,101190.25
2022-07-25T00:49:30.655Z,101185.06
2022-07-25T00:54:32.762Z,101175.47
2022-07-25T00:59:41.830Z,101165.59
2022-07-25T01:04:43.599Z,101161.63
2022-07-25T01:09:59.390Z,101152.06
2022-07-25T01:15:06.062Z,101143.91
2022-07-25T01:20:17.155Z,101150.91
2022-07-25T01:25:20.769Z,101142.38
2022-07-25T01:30:25.249Z,101134.72
2022-07-25T01:35:29.323Z,101138.25
2022-07-25T01:40:33.919Z,101125.75
2022-07-25T01:45:35.685Z,101115.66
2022-07-25T01:50:43.229Z,101096.28
2022-07-25T01:55:46.169Z,101101.72
2022-07-25T02:00:48.973Z,101086.72
2022-07-25T02:05:52.959Z,101082.94
2022-07-25T02:10:55.906Z,101067.59
2022-07-25T02:15:57.654Z,101059.09
2022-07-25T02:21:07.219Z,101058.53
2022-07-25T02:26:19.471Z,101051.69
2022-07-25T02:31:21.270Z,101042.94
2022-07-25T02:36:25.378Z,101035.78
2022-07-25T02:41:29.699Z,101017.00
2022-07-25T02:46:33.896Z,101012.03
2022-07-25T02:51:38.028Z,101002.47
2022-07-25T02:56:42.024Z,101005.72
2022-07-25T03:01:43.820Z,101006.75
2022-07-25T03:06:48.643Z,100995.56
2022-07-25T03:11:52.118Z,100986.09
2022-07-25T03:16:53.998Z,100967.03
2022-07-25T03:22:02.372Z,100948.25
2022-07-25T03:27:05.109Z,100956.16
2022-07-25T03:32:07.687Z,100937.34
2022-07-25T03:37:09.568Z,100936.53
2022-07-25T03:42:11.851Z,100935.03
2022-07-25T03:47:20.521Z,100922.38
2022-07-25T03:52:25.679Z,100923.19
2022-07-25T03:57:29.405Z,100902.44
2022-07-25T04:02:33.703Z,100893.16
2022-07-25T04:07:38.484Z,100894.97
2022-07-25T04:12:40.193Z,100884.13
2022-07-25T04:17:46.571Z,100873.91
2022-07-25T04:22:48.348Z,100872.06
2022-07-25T04:27:50.104Z,100871.81
2022-07-25T04:32:52.418Z,100856.28
2022-07-25T04:37:54.133Z,100863.41
2022-07-25T04:42:55.909Z,100856.28
2022-07-25T04:47:57.878Z,100841.63
2022-07-25T04:53:04.426Z,100838.91
2022-07-25T04:58:09.148Z,100836.09
2022-07-25T05:03:11.081Z,100830.09
2022-07-25T05:08:15.777Z,100825.19
2022-07-25T05:13:22.435Z,100833.66
2022-07-25T05:18:27.907Z,100831.69
2022-07-25T05:23:32.050Z,100828.59
2022-07-25T05:28:38.216Z,100820.88
2022-07-25T05:33:40.056Z,100834.97
2022-07-25T05:38:41.770Z,100829.91
2022-07-25T05:43:49.571Z,100819.34
2022-07-25T05:48:51.374Z,100817.69
2022-07-25T05:53:56.135Z,100807.09
2022-07-25T05:59:02.472Z,100808.81
2022-07-25T06:04:05.320Z,100802.16
2022-07-25T06:09:07.965Z,100804.47
2022-07-25T06:14:10.725Z,100806.56
2022-07-25T06:19:14.904Z,100797.75
2022-07-25T06:24:18.842Z,100791.09
2022-07-25T06:29:26.586Z,100798.56
2022-07-25T06:34:28.992Z,100785.50
2022-07-25T06:39:33.938Z,100783.31
2022-07-25T06:44:35.713Z,100779.88
2022-07-25T06:49:37.456Z,100785.19
2022-07-25T06:54:41.797Z,100771.56
2022-07-25T06:59:47.711Z,100772.41
2022-07-25T07:04:53.404Z,100772.72
2022-07-25T07:09:57.741Z,100762.38
2022-07-25T07:14:59.973Z,100763.44
2022-07-25T07:20:05.693Z,100753.81
2022-07-25T07:25:10.240Z,100752.13
2022-07-25T07:30:16.118Z,100756.13
2022-07-25T07:35:20.933Z,100756.25
2022-07-25T07:40:23.266Z,100745.03
2022-07-25T07:45:25.854Z,100738.16
2022-07-25T07:50:32.473Z,100740.81
2022-07-25T07:55:45.913Z,100733.91
2022-07-25T08:00:52.103Z,100727.16
2022-07-25T08:05:55.244Z,100729.22
2022-07-25T08:10:59.141Z,100715.97
2022-07-25T08:16:05.073Z,100700.44
2022-07-25T08:21:10.313Z,100700.41
2022-07-25T08:26:17.109Z,100692.44
2022-07-25T08:31:21.028Z,100699.22
2022-07-25T08:36:25.219Z,100695.88
2022-07-25T08:41:29.719Z,100691.34
2022-07-25T08:46:35.363Z,100693.66
2022-07-25T08:51:37.673Z,100688.31
2022-07-25T08:56:39.569Z,100687.78
2022-07-25T09:01:43.439Z,100695.03
2022-07-25T09:06:51.890Z,100678.38
2022-07-25T09:11:53.714Z,100684.00
2022-07-25T09:17:22.649Z,100681.25
2022-07-25T09:22:45.937Z,100685.63
2022-07-25T09:27:48.240Z,100684.06
2022-07-25T09:33:01.688Z,100699.25
2022-07-25T09:38:12.926Z,100697.31
2022-07-25T09:43:14.870Z,100688.88
2022-07-25T09:48:18.763Z,100688.28
2022-07-25T09:53:22.965Z,100688.69
2022-07-25T09:58:25.434Z,100704.41
2022-07-25T10:03:45.505Z,100694.84
2022-07-25T10:08:49.379Z,100706.44
2022-07-25T10:13:54.302Z,100695.88
2022-07-25T10:19:01.380Z,100697.19
2022-07-25T10:24:11.010Z,100700.13
2022-07-25T10:29:16.060Z,100698.16
2022-07-25T10:34:29.650Z,100708.59
2022-07-25T10:39:38.715Z,100698.59
2022-07-25T10:44:48.313Z,100690.47
2022-07-25T10:55:28.839Z,100704.38
2022-07-25T11:00:34.176Z,100713.03
2022-07-25T11:05:45.604Z,100709.03
2022-07-25T11:10:53.506Z,100707.78
2022-07-25T11:16:01.215Z,100705.91
2022-07-25T11:21:10.311Z,100700.34
2022-07-25T11:26:15.653Z,100706.09
2022-07-25T11:31:25.200Z,100726.00
2022-07-25T11:36:31.007Z,100733.19
2022-07-25T11:41:35.769Z,100744.28
2022-07-25T11:46:44.681Z,100767.09
2022-07-25T11:51:47.306Z,100757.16
2022-07-25T11:56:54.298Z,100753.31
2022-07-25T12:01:58.559Z,100755.19
2022-07-25T12:07:05.680Z,100763.19
2022-07-25T12:12:09.337Z,100780.78
2022-07-25T12:17:16.495Z,100771.94
2022-07-25T12:22:18.282Z,100758.19
2022-07-25T12:27:22.470Z,100780.31
2022-07-25T12:32:26.459Z,100778.44
2022-07-25T12:37:30.624Z,100782.47
2022-07-25T12:42:33.912Z,100783.16
2022-07-25T12:47:36.226Z,100810.34
2022-07-25T12:52:38.459Z,100789.06
2022-07-25T12:57:40.250Z,100785.13
2022-07-25T13:02:44.353Z,100808.56
2022-07-25T13:07:46.290Z,100829.84
2022-07-25T13:12:52.727Z,100820.34
2022-07-25T13:17:54.911Z,100826.31
2022-07-25T13:23:00.656Z,100835.31
2022-07-25T13:28:10.889Z,100839.81
2022-07-25T13:33:15.296Z,100830.88
2022-07-25T13:38:17.860Z,100849.06
2022-07-25T13:43:27.609Z,100854.50
2022-07-25T13:48:35.092Z,100838.66
2022-07-25T13:53:36.889Z,100857.31
2022-07-25T13:58:38.821Z,100858.25
2022-07-25T14:03:40.688Z,100851.59
2022-07-25T14:08:45.036Z,100846.66
2022-07-25T14:13:47.850Z,100838.47
2022-07-25T14:18:52.105Z,100860.06
2022-07-25T14:23:57.779Z,100860.44
2022-07-25T14:29:01.933Z,100873.47
2022-07-25T14:34:06.295Z,100858.97
2022-07-25T14:39:08.639Z,100853.97
2022-07-25T14:44:11.047Z,100847.97
2022-07-25T14:49:16.713Z,100851.44
2022-07-25T14:54:23.453Z,100851.00
2022-07-25T14:59:30.823Z,100852.34
2022-07-25T15:04:32.660Z,100857.53
2022-07-25T15:09:38.460Z,100857.03
2022-07-25T15:14:41.744Z,100861.75
2022-07-25T15:19:44.513Z,100863.16
2022-07-25T15:25:17.182Z,100865.53
2022-07-25T15:30:09.501Z,100871.53
2022-07-25T15:35:12.294Z,100877.16
2022-07-25T15:40:14.290Z,100867.97
2022-07-25T15:45:32.628Z,100867.28
2022-07-25T15:50:39.716Z,100865.16
2022-07-25T15:55:45.494Z,100868.91
2022-07-25T16:00:47.986Z,100860.63
2022-07-25T16:05:49.960Z,100861.84
2022-07-25T16:10:54.497Z,100863.09
2022-07-25T16:15:56.528Z,100876.25
2022-07-25T16:20:58.571Z,100874.09
2022-07-25T16:26:00.473Z,100875.22
2022-07-25T16:31:08.443Z,100877.72
2022-07-25T16:36:11.397Z,100868.81
2022-07-25T16:41:13.385Z,100879.91
2022-07-25T16:46:15.812Z,100867.63
2022-07-25T16:51:17.683Z,100879.78
2022-07-25T16:56:19.579Z,100883.44
2022-07-25T17:01:25.036Z,100871.09
2022-07-25T17:06:27.179Z,100897.09
2022-07-25T17:11:30.167Z,100895.06
2022-07-25T17:16:32.589Z,100889.16
2022-07-25T17:21:37.047Z,100881.31
2022-07-25T17:26:39.010Z,100891.25
2022-07-25T17:31:50.358Z,100899.56
2022-07-25T17:36:55.832Z,100902.31
2022-07-25T17:41:58.938Z,100907.44
2022-07-25T17:47:00.894Z,100918.63
2022-07-25T17:52:04.025Z,100917.81
2022-07-25T17:57:08.585Z,100918.88
2022-07-25T18:02:10.513Z,100923.75
2022-07-25T18:07:14.795Z,100931.06
2022-07-25T18:12:18.801Z,100923.13
2022-07-25T18:17:28.990Z,100921.16
2022-07-25T18:22:31.179Z,100935.75
2022-07-25T18:27:39.653Z,100937.59
2022-07-25T18:32:47.661Z,100932.84
2022-07-25T18:37:49.804Z,100935.22
2022-07-25T18:42:51.643Z,100927.63
2022-07-25T18:47:54.602Z,100936.47
2022-07-25T18:52:57.345Z,100928.69
2022-07-25T18:57:59.431Z,100919.81
2022-07-25T19:03:01.726Z,100922.50
2022-07-25T19:08:08.657Z,100933.34
2022-07-25T19:13:32.736Z,100939.91
2022-07-25T19:18:36.026Z,100939.25
2022-07-25T19:23:40.367Z,100947.53
2022-07-25T19:28:42.940Z,100954.53
2022-07-25T19:33:48.119Z,100959.91
2022-07-25T19:38:54.777Z,100958.38
2022-07-25T19:44:06.043Z,100972.69
2022-07-25T19:49:11.524Z,100976.19
2022-07-25T19:54:15.893Z,100984.25
2022-07-25T19:59:21.805Z,100985.16
2022-07-25T20:04:23.794Z,100986.47
2022-07-25T20:09:29.260Z,100994.00
2022-07-25T20:14:33.822Z,101002.72
2022-07-25T20:19:36.896Z,100998.28
2022-07-25T20:24:38.760Z,101005.72
2022-07-25T20:29:41.050Z,100998.22
2022-07-25T20:34:45.371Z,100998.44
2022-07-25T20:39:48.221Z,101008.31
2022-07-25T20:44:56.774Z,101002.22
2022-07-25T20:50:02.806Z,101008.84
2022-07-25T20:55:09.123Z,101004.75
2022-07-25T21:00:14.292Z,101003.72
2022-07-25T21:05:19.855Z,101010.97
2022-07-25T21:10:24.941Z,101009.81
2022-07-25T21:15:30.841Z,101015.97
2022-07-25T21:20:32.713Z,101017.38
2022-07-25T21:25:34.515Z,101021.50
2022-07-25T21:30:37.445Z,101025.31
2022-07-25T21:35:49.183Z,101030.66
2022-07-25T21:40:56.765Z,101024.22
2022-07-25T21:46:02.763Z,101035.47
2022-07-25T21:51:18.803Z,101028.16
2022-07-25T21:56:27.363Z,101025.22
2022-07-25T22:01:29.358Z,101025.59
2022-07-25T22:06:31.506Z,101029.94
2022-07-25T22:11:42.924Z,101029.94
2022-07-25T22:16:48.251Z,101019.94
2022-07-25T22:21:53.163Z,101027.00
2022-07-25T22:26:57.100Z,101035.34
2022-07-25T22:31:59.480Z,101027.22
2022-07-25T22:37:05.391Z,101042.44
2022-07-25T22:42:09.446Z,101035.47
2022-07-25T22:47:14.529Z,101043.56
2022-07-25T22:52:20.727Z,101049.31
2022-07-25T22:57:22.525Z,101049.53
2022-07-25T23:02:24.330Z,101049.84
2022-07-25T23:07:26.093Z,101058.06
2022-07-25T23:12:28.058Z,101050.88
2022-07-25T23:17:34.661Z,101059.13
2022-07-25T23:22:36.470Z,101054.59
2022-07-25T23:27:42.983Z,101060.81
2022-07-25T23:32:47.182Z,101065.94
2022-07-25T23:37:49.014Z,101069.09
2022-07-25T23:42:54.537Z,101071.66
2022-07-25T23:48:00.091Z,101076.03
2022-07-25T23:53:05.722Z,101065.31
2022-07-25T23:58:10.047Z,101067.19
